createdAt,value
2017-12-30T00:02:08.569Z,99287.19
2017-12-30T00:04:37.017Z,99283.81
2017-12-30T00:07:04.579Z,99290.56
2017-12-30T00:09:32.113Z,99288.86
2017-12-30T00:12:00.449Z,99295.19
2017-12-30T00:14:27.961Z,99303.16
2017-12-30T00:16:55.435Z,99306.51
2017-12-30T00:19:22.901Z,99303.97
2017-12-30T00:21:50.377Z,99297.63
2017-12-30T00:24:17.851Z,99312.36
2017-12-30T00:26:45.552Z,99312.34
2017-12-30T00:29:13.046Z,99303.03
2017-12-30T00:31:40.543Z,99308.08
2017-12-30T00:34:08.025Z,99292.08
2017-12-30T00:36:35.519Z,99292.45
2017-12-30T00:39:02.979Z,99308.45
2017-12-30T00:41:30.468Z,99299.17
2017-12-30T00:43:58.009Z,99303.78
2017-12-30T00:46:25.473Z,99299.13
2017-12-30T00:48:52.953Z,99295.33
2017-12-30T00:51:20.450Z,99299.95
2017-12-30T00:53:47.933Z,99307.08
2017-12-30T00:56:15.489Z,99310.05
2017-12-30T00:58:42.963Z,99312.13
2017-12-30T01:01:10.469Z,99307.97
2017-12-30T01:03:37.976Z,99306.69
2017-12-30T01:06:05.457Z,99308.00
2017-12-30T01:08:32.936Z,99307.11
2017-12-30T01:11:00.408Z,99302.05
2017-12-30T01:13:27.884Z,99305.43
2017-12-30T01:15:55.371Z,99307.14
2017-12-30T01:18:22.869Z,99316.80
2017-12-30T01:20:50.321Z,99319.75
2017-12-30T01:23:17.796Z,99321.83
2017-12-30T01:25:45.277Z,99315.91
2017-12-30T01:28:12.765Z,99311.28
2017-12-30T01:30:40.217Z,99317.60
2017-12-30T01:33:07.691Z,99310.45
2017-12-30T01:35:35.149Z,99315.05
2017-12-30T01:38:02.622Z,99312.98
2017-12-30T01:40:30.097Z,99306.61
2017-12-30T01:42:57.604Z,99305.80
2017-12-30T01:45:25.061Z,99308.70
2017-12-30T01:47:52.608Z,99310.42
2017-12-30T01:50:20.080Z,99304.06
2017-12-30T01:52:47.552Z,99303.64
2017-12-30T01:55:15.017Z,99294.80
2017-12-30T01:57:42.847Z,99295.65
2017-12-30T02:00:10.338Z,99300.69
2017-12-30T02:02:37.793Z,99301.08
2017-12-30T02:05:05.249Z,99296.89
2017-12-30T02:07:32.705Z,99296.44
2017-12-30T02:10:00.177Z,99301.49
2017-12-30T02:12:27.667Z,99304.86
2017-12-30T02:14:55.149Z,99299.80
2017-12-30T02:17:22.634Z,99303.61
2017-12-30T02:19:50.124Z,99307.45
2017-12-30T02:22:17.588Z,99307.47
2017-12-30T02:24:45.073Z,99312.93
2017-12-30T02:27:12.541Z,99317.16
2017-12-30T02:29:40.019Z,99312.06
2017-12-30T02:32:07.495Z,99312.03
2017-12-30T02:34:34.957Z,99317.47
2017-12-30T02:37:03.258Z,99308.23
2017-12-30T02:39:30.735Z,99298.09
2017-12-30T02:41:58.211Z,99298.97
2017-12-30T02:44:25.696Z,99285.06
2017-12-30T02:46:53.156Z,99293.06
2017-12-30T02:49:20.621Z,99282.96
2017-12-30T02:51:48.112Z,99271.15
2017-12-30T02:54:15.591Z,99260.99
2017-12-30T02:56:43.049Z,99254.67
2017-12-30T02:59:10.518Z,99261.43
2017-12-30T03:01:38.011Z,99265.64
2017-12-30T03:04:05.477Z,99265.63
2017-12-30T03:06:32.943Z,99257.17
2017-12-30T03:09:00.424Z,99262.59
2017-12-30T03:11:27.921Z,99258.82
2017-12-30T03:13:55.389Z,99259.67
2017-12-30T03:16:22.883Z,99257.96
2017-12-30T03:18:50.341Z,99260.44
2017-12-30T03:21:17.835Z,99260.82
2017-12-30T03:23:45.289Z,99254.03
2017-12-30T03:26:12.866Z,99243.45
2017-12-30T04:14:32.260Z,99240.80
2017-12-30T04:16:59.732Z,99239.04
2017-12-30T04:19:27.185Z,99231.11
2017-12-30T04:21:54.653Z,99232.02
2017-12-30T04:24:22.131Z,99239.56
2017-12-30T04:26:49.597Z,99234.05
2017-12-30T04:29:17.067Z,99236.55
2017-12-30T04:31:44.555Z,99239.92
2017-12-30T04:34:12.057Z,99240.31
2017-12-30T04:36:39.525Z,99241.09
2017-12-30T04:39:06.997Z,99236.42
2017-12-30T04:41:34.527Z,99232.13
2017-12-30T04:44:02.053Z,99239.36
2017-12-30T04:46:29.551Z,99241.80
2017-12-30T04:48:57.892Z,99239.66
2017-12-30T04:51:25.374Z,99248.91
2017-12-30T04:53:52.840Z,99245.09
2017-12-30T04:56:20.350Z,99241.17
2017-12-30T04:58:47.841Z,99245.80
2017-12-30T05:01:15.319Z,99243.64
2017-12-30T05:03:42.803Z,99250.39
2017-12-30T05:06:10.289Z,99260.44
2017-12-30T05:08:37.786Z,99262.96
2017-12-30T05:11:05.265Z,99267.52
2017-12-30T05:13:32.751Z,99264.06
2017-12-30T05:16:00.214Z,99268.66
2017-12-30T05:18:27.696Z,99272.48
2017-12-30T05:20:55.196Z,99263.27
2017-12-30T05:23:22.677Z,99253.48
2017-12-30T05:25:50.159Z,99266.17
2017-12-30T05:28:17.736Z,99261.47
2017-12-30T05:30:45.235Z,99263.17
2017-12-30T05:33:12.723Z,99261.86
2017-12-30T05:35:40.187Z,99264.45
2017-12-30T05:38:07.672Z,99262.33
2017-12-30T05:40:36.082Z,99261.46
2017-12-30T05:43:03.583Z,99251.35
2017-12-30T05:45:31.093Z,99255.56
2017-12-30T05:47:58.592Z,99255.17
2017-12-30T05:50:26.053Z,99258.47
2017-12-30T05:52:53.545Z,99255.09
2017-12-30T05:55:21.008Z,99253.93
2017-12-30T05:57:48.517Z,99264.47
2017-12-30T06:00:16.051Z,99265.34
2017-12-30T06:02:43.537Z,99269.10
2017-12-30T06:05:11.016Z,99268.34
2017-12-30T06:07:38.518Z,99270.84
2017-12-30T06:10:05.978Z,99255.59
2017-12-30T06:12:33.465Z,99251.35
2017-12-30T06:15:00.959Z,99250.95
2017-12-30T06:17:28.445Z,99244.20
2017-12-30T06:19:55.937Z,99242.92
2017-12-30T06:22:23.409Z,99240.06
2017-12-30T06:24:50.911Z,99229.09
2017-12-30T06:27:18.389Z,99222.31
2017-12-30T06:29:45.891Z,99218.59
2017-12-30T06:32:13.379Z,99209.73
2017-12-30T06:34:40.879Z,99218.96
2017-12-30T06:37:08.362Z,99211.10
2017-12-30T06:39:35.815Z,99210.59
2017-12-30T06:42:03.276Z,99202.66
2017-12-30T06:44:30.756Z,99206.97
2017-12-30T06:46:58.253Z,99208.22
2017-12-30T06:49:25.744Z,99211.18
2017-12-30T06:51:53.209Z,99210.23
2017-12-30T06:54:20.671Z,99212.69
2017-12-30T06:56:48.142Z,99211.83
2017-12-30T06:59:15.612Z,99209.45
2017-12-30T07:01:43.106Z,99212.78
2017-12-30T07:04:10.587Z,99219.14
2017-12-30T07:06:38.069Z,99218.39
2017-12-30T07:09:05.545Z,99220.04
2017-12-30T07:11:33.028Z,99229.06
2017-12-30T07:14:00.532Z,99235.23
2017-12-30T07:16:28.105Z,99230.45
2017-12-30T07:18:55.575Z,99234.31
2017-12-30T07:21:23.033Z,99241.50
2017-12-30T07:23:50.501Z,99232.20
2017-12-30T07:26:17.996Z,99230.96
2017-12-30T07:28:45.483Z,99236.16
2017-12-30T07:31:12.960Z,99241.10
2017-12-30T07:33:40.417Z,99246.24
2017-12-30T07:36:08.292Z,99238.14
2017-12-30T07:38:35.795Z,99247.52
2017-12-30T07:41:03.772Z,99254.61
2017-12-30T07:43:31.229Z,99249.92
2017-12-30T07:45:58.727Z,99242.34
2017-12-30T07:48:26.238Z,99247.41
2017-12-30T07:50:53.721Z,99245.30
2017-12-30T07:53:21.224Z,99241.88
2017-12-30T07:55:48.705Z,99243.52
2017-12-30T07:58:16.172Z,99231.36
2017-12-30T08:00:43.655Z,99225.77
2017-12-30T08:03:11.121Z,99213.91
2017-12-30T08:05:38.584Z,99211.42
2017-12-30T08:08:07.033Z,99206.27
2017-12-30T08:10:34.522Z,99194.52
2017-12-30T08:13:02.056Z,99179.84
2017-12-30T08:15:29.545Z,99188.19
2017-12-30T08:17:57.009Z,99181.50
2017-12-30T08:20:24.860Z,99182.77
2017-12-30T08:22:52.327Z,99177.20
2017-12-30T08:25:19.809Z,99170.05
2017-12-30T08:27:47.269Z,99157.75
2017-12-30T08:30:14.745Z,99158.69
2017-12-30T08:32:42.220Z,99142.55
2017-12-30T08:35:09.699Z,99144.60
2017-12-30T08:37:37.184Z,99140.39
2017-12-30T08:40:04.681Z,99145.78
2017-12-30T08:42:32.171Z,99145.82
2017-12-30T08:44:59.633Z,99145.36
2017-12-30T08:47:27.090Z,99146.15
2017-12-30T08:49:54.567Z,99144.04
2017-12-30T08:52:22.042Z,99134.31
2017-12-30T08:54:49.791Z,99127.88
2017-12-30T08:57:18.313Z,99110.92
2017-12-30T08:59:45.777Z,99117.67
2017-12-30T09:02:13.557Z,99109.25
2017-12-30T09:04:41.084Z,99105.81
2017-12-30T09:07:08.547Z,99100.27
2017-12-30T09:09:36.347Z,99098.97
2017-12-30T09:12:03.846Z,99088.76
2017-12-30T09:14:31.320Z,99084.98
2017-12-30T09:16:58.791Z,99083.20
2017-12-30T09:19:26.273Z,99074.23
2017-12-30T09:21:53.750Z,99064.91
2017-12-30T09:24:21.222Z,99055.98
2017-12-30T09:26:48.765Z,99052.64
2017-12-30T09:29:16.219Z,99053.33
2017-12-30T09:31:43.701Z,99045.29
2017-12-30T09:34:11.195Z,99046.07
2017-12-30T09:36:38.681Z,99049.28
2017-12-30T09:39:06.172Z,99045.34
2017-12-30T09:41:33.663Z,99046.60
2017-12-30T09:44:01.145Z,99038.91
2017-12-30T09:46:28.635Z,99033.26
2017-12-30T09:48:56.128Z,99038.70
2017-12-30T09:51:23.607Z,99031.48
2017-12-30T09:53:51.558Z,99041.73
2017-12-30T09:56:19.043Z,99029.58
2017-12-30T09:58:46.931Z,99041.06
2017-12-30T10:01:14.416Z,99036.23
2017-12-30T10:03:41.884Z,99016.92
2017-12-30T10:06:09.833Z,99017.55
2017-12-30T10:08:37.313Z,99015.23
2017-12-30T10:11:04.806Z,99005.30
2017-12-30T10:13:32.288Z,99006.95
2017-12-30T10:15:59.767Z,98999.36
2017-12-30T10:18:27.269Z,98991.05
2017-12-30T10:20:54.806Z,98979.23
2017-12-30T10:23:22.299Z,98974.05
2017-12-30T10:25:49.790Z,98976.27
2017-12-30T10:28:17.272Z,98960.17
2017-12-30T10:30:44.744Z,98943.02
2017-12-30T10:33:12.212Z,98924.42
2017-12-30T10:35:39.682Z,98923.67
2017-12-30T10:38:07.165Z,98916.36
2017-12-30T10:40:34.658Z,98898.69
2017-12-30T10:43:02.159Z,98889.36
2017-12-30T10:45:29.618Z,98891.47
2017-12-30T10:47:57.125Z,98878.36
2017-12-30T10:50:24.597Z,98872.03
2017-12-30T10:52:52.076Z,98864.86
2017-12-30T10:55:22.370Z,98860.25
2017-12-30T10:57:49.829Z,98855.52
2017-12-30T11:00:18.208Z,98850.12
2017-12-30T11:02:45.677Z,98842.02
2017-12-30T11:05:14.385Z,98829.40
2017-12-30T11:07:41.837Z,98813.72
2017-12-30T11:10:09.344Z,98798.67
2017-12-30T11:12:36.850Z,98796.47
2017-12-30T11:15:05.140Z,98789.28
2017-12-30T11:17:32.633Z,98788.17
2017-12-30T11:20:00.122Z,98778.15
2017-12-30T11:22:27.603Z,98773.72
2017-12-30T11:24:55.102Z,98766.73
2017-12-30T11:27:22.591Z,98741.52
2017-12-30T11:29:50.765Z,98748.41
2017-12-30T11:32:18.242Z,98739.45
2017-12-30T11:34:45.734Z,98737.35
2017-12-30T11:37:13.209Z,98736.50
2017-12-30T11:39:40.687Z,98725.16
2017-12-30T11:42:08.167Z,98721.72
2017-12-30T11:44:35.621Z,98716.65
2017-12-30T11:47:03.095Z,98705.23
2017-12-30T11:49:30.549Z,98705.70
2017-12-30T11:51:58.003Z,98691.33
2017-12-30T11:54:25.499Z,98678.70
2017-12-30T11:56:53.156Z,98694.32
2017-12-30T11:59:20.647Z,98668.98
2017-12-30T12:01:48.124Z,98663.92
2017-12-30T12:04:15.599Z,98653.43
2017-12-30T12:06:43.263Z,98657.56
2017-12-30T12:09:10.734Z,98655.84
2017-12-30T12:11:38.253Z,98661.29
2017-12-30T12:14:05.717Z,98650.27
2017-12-30T12:16:33.169Z,98640.12
2017-12-30T12:19:00.635Z,98630.40
2017-12-30T12:21:28.118Z,98619.41
2017-12-30T12:23:55.584Z,98618.15
2017-12-30T12:26:23.060Z,98608.08
2017-12-30T12:28:50.539Z,98609.97
2017-12-30T12:31:18.021Z,98611.70
2017-12-30T12:33:45.482Z,98610.80
2017-12-30T12:36:12.960Z,98604.44
2017-12-30T12:38:40.430Z,98613.36
2017-12-30T12:41:07.881Z,98612.03
2017-12-30T12:43:35.350Z,98609.48
2017-12-30T12:46:02.814Z,98601.41
2017-12-30T12:48:30.351Z,98603.44
2017-12-30T12:50:57.821Z,98609.58
2017-12-30T12:53:25.292Z,98606.64
2017-12-30T12:55:52.758Z,98606.69
2017-12-30T12:58:20.252Z,98606.61
2017-12-30T13:00:47.732Z,98593.52
2017-12-30T13:03:15.215Z,98596.03
2017-12-30T13:05:42.748Z,98587.05
2017-12-30T13:08:10.229Z,98588.14
2017-12-30T13:10:37.709Z,98582.30
2017-12-30T13:13:05.218Z,98588.84
2017-12-30T13:15:32.687Z,98565.39
2017-12-30T13:18:00.181Z,98571.31
2017-12-30T13:20:27.655Z,98571.22
2017-12-30T13:22:55.136Z,98559.07
2017-12-30T13:25:22.654Z,98556.48
2017-12-30T13:27:50.117Z,98557.27
2017-12-30T13:30:17.595Z,98562.03
2017-12-30T13:32:45.411Z,98555.20
2017-12-30T13:35:12.890Z,98565.60
2017-12-30T13:37:40.416Z,98552.80
2017-12-30T13:40:07.885Z,98555.65
2017-12-30T13:42:35.336Z,98548.10
2017-12-30T13:45:02.821Z,98554.03
2017-12-30T13:47:30.281Z,98537.25
2017-12-30T13:49:57.771Z,98545.83
2017-12-30T13:52:25.289Z,98542.19
2017-12-30T13:54:52.778Z,98546.48
2017-12-30T13:57:20.286Z,98541.39
2017-12-30T13:59:48.014Z,98546.34
2017-12-30T14:02:15.469Z,98540.44
2017-12-30T14:04:42.989Z,98546.94
2017-12-30T14:07:10.493Z,98554.97
2017-12-30T14:09:40.111Z,98562.86
2017-12-30T14:12:07.595Z,98552.39
2017-12-30T14:14:35.104Z,98556.47
2017-12-30T14:17:02.585Z,98568.95
2017-12-30T14:19:30.086Z,98564.43
2017-12-30T14:21:57.569Z,98563.50
2017-12-30T14:24:25.057Z,98554.50
2017-12-30T14:26:52.543Z,98555.17
2017-12-30T14:29:20.015Z,98556.36
2017-12-30T14:31:47.508Z,98547.66
2017-12-30T14:34:14.973Z,98555.50
2017-12-30T14:36:42.449Z,98545.71
2017-12-30T14:39:09.954Z,98555.39
2017-12-30T14:41:38.018Z,98544.59
2017-12-30T14:44:05.489Z,98567.80
2017-12-30T14:46:32.968Z,98558.41
2017-12-30T14:49:01.849Z,98573.63
2017-12-30T14:51:29.417Z,98575.23
2017-12-30T14:53:56.915Z,98578.14
2017-12-30T14:56:24.861Z,98568.39
2017-12-30T14:58:52.383Z,98557.66
2017-12-30T15:01:19.853Z,98567.49
2017-12-30T15:03:47.331Z,98569.42
2017-12-30T15:06:14.807Z,98565.50
2017-12-30T15:08:42.282Z,98564.97
2017-12-30T15:11:09.758Z,98585.77
2017-12-30T15:13:37.236Z,98578.77
2017-12-30T15:16:04.715Z,98580.11
2017-12-30T15:18:32.216Z,98564.37
2017-12-30T15:21:00.243Z,98556.33
2017-12-30T15:23:27.756Z,98563.02
2017-12-30T15:25:55.218Z,98583.36
2017-12-30T15:28:22.673Z,98583.31
2017-12-30T15:30:50.133Z,98576.81
2017-12-30T15:33:17.601Z,98575.94
2017-12-30T15:35:45.088Z,98578.48
2017-12-30T15:38:12.595Z,98569.75
2017-12-30T15:40:40.132Z,98576.98
2017-12-30T15:43:07.613Z,98587.03
2017-12-30T15:45:35.090Z,98570.50
2017-12-30T15:48:02.568Z,98589.01
2017-12-30T15:50:30.030Z,98601.20
2017-12-30T15:52:57.516Z,98600.22
2017-12-30T15:55:25.016Z,98595.33
2017-12-30T15:57:52.591Z,98612.64
2017-12-30T16:00:20.073Z,98600.33
2017-12-30T16:02:47.608Z,98620.86
2017-12-30T16:05:15.082Z,98617.00
2017-12-30T16:07:42.595Z,98613.85
2017-12-30T16:10:10.072Z,98622.84
2017-12-30T16:12:37.568Z,98624.97
2017-12-30T16:15:05.064Z,98617.62
2017-12-30T16:17:32.572Z,98637.25
2017-12-30T16:20:00.082Z,98630.84
2017-12-30T16:22:27.565Z,98622.63
2017-12-30T16:24:55.114Z,98633.84
2017-12-30T16:27:24.176Z,98628.70
2017-12-30T16:29:51.668Z,98626.41
2017-12-30T16:35:13.358Z,98629.44
2017-12-30T16:37:40.906Z,98627.38
2017-12-30T16:40:08.394Z,98658.51
2017-12-30T16:42:35.891Z,98654.89
2017-12-30T16:45:03.355Z,98656.14
2017-12-30T16:47:30.937Z,98650.61
2017-12-30T16:49:58.447Z,98643.66
2017-12-30T16:52:25.934Z,98661.95
2017-12-30T16:54:53.412Z,98668.19
2017-12-30T16:57:20.903Z,98670.86
2017-12-30T16:59:48.415Z,98668.96
2017-12-30T17:02:15.890Z,98667.16
2017-12-30T17:04:43.368Z,98672.61
2017-12-30T17:07:10.823Z,98698.98
2017-12-30T17:09:38.305Z,98709.14
2017-12-30T17:12:05.786Z,98698.84
2017-12-30T17:14:33.253Z,98693.98
2017-12-30T17:17:00.743Z,98699.70
2017-12-30T17:19:28.466Z,98696.33
2017-12-30T17:21:55.974Z,98705.03
2017-12-30T17:24:23.438Z,98699.27
2017-12-30T17:26:50.991Z,98713.63
2017-12-30T17:29:18.467Z,98707.50
2017-12-30T17:31:45.942Z,98714.66
2017-12-30T17:34:13.402Z,98710.90
2017-12-30T17:36:40.929Z,98709.79
2017-12-30T17:39:08.404Z,98721.29
2017-12-30T17:41:35.875Z,98722.41
2017-12-30T17:44:03.333Z,98732.38
2017-12-30T17:46:30.830Z,98737.03
2017-12-30T17:48:58.316Z,98726.41
2017-12-30T17:51:25.803Z,98739.53
2017-12-30T17:53:53.295Z,98731.21
2017-12-30T17:56:20.788Z,98735.03
2017-12-30T17:58:49.443Z,98734.22
2017-12-30T18:01:17.730Z,98735.91
2017-12-30T18:03:45.220Z,98756.95
2017-12-30T18:06:13.074Z,98758.48
2017-12-30T18:08:40.571Z,98758.84
2017-12-30T18:11:08.045Z,98764.41
2017-12-30T18:16:28.514Z,98764.66
2017-12-30T18:18:56.028Z,98777.04
2017-12-30T18:21:23.523Z,98772.88
2017-12-30T18:23:51.699Z,98780.75
2017-12-30T18:26:19.196Z,98784.25
2017-12-30T18:28:48.315Z,98784.09
2017-12-30T18:31:15.771Z,98792.70
2017-12-30T18:33:43.291Z,98796.84
2017-12-30T18:36:11.099Z,98803.95
2017-12-30T18:38:38.575Z,98792.04
2017-12-30T18:41:06.061Z,98821.28
2017-12-30T18:43:33.548Z,98818.78
2017-12-30T18:46:02.145Z,98807.58
2017-12-30T18:48:29.733Z,98800.61
2017-12-30T18:50:57.401Z,98819.15
2017-12-30T18:53:24.904Z,98801.31
2017-12-30T18:55:52.388Z,98809.06
2017-12-30T18:58:19.886Z,98813.66
2017-12-30T19:00:47.358Z,98823.97
2017-12-30T19:03:14.852Z,98821.83
2017-12-30T19:05:42.359Z,98828.81
2017-12-30T19:08:10.120Z,98848.05
2017-12-30T19:10:37.594Z,98844.47
2017-12-30T19:13:05.077Z,98841.01
2017-12-30T19:15:32.545Z,98843.52
2017-12-30T19:18:00.589Z,98850.86
2017-12-30T19:20:28.100Z,98838.55
2017-12-30T19:22:55.610Z,98844.52
2017-12-30T19:25:37.304Z,98841.47
2017-12-30T19:28:04.801Z,98837.69
2017-12-30T19:30:33.030Z,98827.42
2017-12-30T19:33:00.545Z,98832.08
2017-12-30T19:35:28.028Z,98840.09
2017-12-30T19:37:55.536Z,98831.67
2017-12-30T19:40:23.055Z,98824.92
2017-12-30T19:42:51.512Z,98825.15
2017-12-30T19:45:19.517Z,98835.50
2017-12-30T19:47:46.997Z,98835.27
2017-12-30T19:50:14.491Z,98843.44
2017-12-30T19:52:41.989Z,98856.80
2017-12-30T19:55:09.469Z,98855.97
2017-12-30T19:57:36.973Z,98849.03
2017-12-30T20:00:04.465Z,98847.58
2017-12-30T20:02:31.945Z,98844.30
2017-12-30T20:04:59.418Z,98854.27
2017-12-30T20:07:26.898Z,98849.48
2017-12-30T20:09:54.395Z,98846.88
2017-12-30T20:12:23.839Z,98840.98
2017-12-30T20:14:51.354Z,98849.41
2017-12-30T20:17:18.832Z,98854.52
2017-12-30T20:19:46.327Z,98852.73
2017-12-30T20:22:13.805Z,98849.84
2017-12-30T20:24:41.312Z,98860.95
2017-12-30T20:27:08.778Z,98857.87
2017-12-30T20:29:36.320Z,98854.41
2017-12-30T20:32:03.794Z,98863.86
2017-12-30T20:34:31.265Z,98857.11
2017-12-30T20:36:58.747Z,98878.55
2017-12-30T20:39:26.240Z,98878.03
2017-12-30T20:41:53.714Z,98883.06
2017-12-30T20:44:21.318Z,98895.84
2017-12-30T20:46:48.781Z,98896.37
2017-12-30T20:49:16.269Z,98890.84
2017-12-30T20:51:53.042Z,98901.45
2017-12-30T20:54:20.514Z,98912.89
2017-12-30T20:56:48.009Z,98906.24
2017-12-30T20:59:15.485Z,98900.88
2017-12-30T21:01:42.967Z,98926.91
2017-12-30T21:04:10.487Z,98932.19
2017-12-30T21:06:37.965Z,98920.27
2017-12-30T21:09:05.429Z,98944.20
2017-12-30T21:11:33.134Z,98948.27
2017-12-30T21:14:00.610Z,98971.55
2017-12-30T21:16:28.161Z,98966.59
2017-12-30T21:18:55.676Z,98949.75
2017-12-30T21:21:23.172Z,98950.57
2017-12-30T21:23:50.872Z,98944.17
2017-12-30T21:26:18.347Z,98956.18
2017-12-30T21:28:45.852Z,98967.80
2017-12-30T21:31:13.718Z,98973.23
2017-12-30T21:33:41.205Z,98991.09
2017-12-30T21:36:08.685Z,99005.46
2017-12-30T21:38:36.215Z,99002.45
2017-12-30T21:41:03.690Z,99021.41
2017-12-30T21:43:32.164Z,99009.25
2017-12-30T21:46:00.527Z,99024.87
2017-12-30T21:48:28.017Z,99024.05
2017-12-30T21:50:55.532Z,99034.75
2017-12-30T21:53:23.020Z,99036.38
2017-12-30T21:55:50.515Z,99038.22
2017-12-30T21:58:18.008Z,99057.00
2017-12-30T22:00:45.473Z,99078.06
2017-12-30T22:03:12.951Z,99068.90
2017-12-30T22:05:40.431Z,99069.03
2017-12-30T22:08:07.984Z,99076.11
2017-12-30T22:10:35.512Z,99091.25
2017-12-30T22:13:03.000Z,99093.57
2017-12-30T22:15:30.454Z,99086.57
2017-12-30T22:17:57.971Z,99102.52
2017-12-30T22:20:25.442Z,99133.53
2017-12-30T22:22:52.919Z,99124.19
2017-12-30T22:25:20.392Z,99117.84
2017-12-30T22:27:47.920Z,99130.13
2017-12-30T22:30:15.419Z,99147.42
2017-12-30T22:32:42.919Z,99147.66
2017-12-30T22:35:10.396Z,99154.31
2017-12-30T22:37:37.879Z,99180.38
2017-12-30T22:40:05.498Z,99165.34
2017-12-30T22:42:32.970Z,99156.44
2017-12-30T22:45:00.518Z,99150.47
2017-12-30T22:47:27.977Z,99151.53
2017-12-30T22:49:55.572Z,99162.52
2017-12-30T22:52:23.067Z,99165.57
2017-12-30T22:54:50.550Z,99167.70
2017-12-30T22:57:18.837Z,99185.91
2017-12-30T22:59:48.319Z,99192.41
2017-12-30T23:02:15.921Z,99197.13
2017-12-30T23:04:43.435Z,99207.65
2017-12-30T23:07:13.886Z,99221.27
2017-12-30T23:09:41.368Z,99237.72
2017-12-30T23:12:08.872Z,99234.90
2017-12-30T23:14:37.126Z,99242.03
2017-12-30T23:17:09.312Z,99251.52
2017-12-30T23:19:36.785Z,99256.97
2017-12-30T23:22:04.373Z,99263.02
2017-12-30T23:24:32.769Z,99255.73
2017-12-30T23:27:00.331Z,99259.11
2017-12-30T23:29:28.144Z,99266.84
2017-12-30T23:31:55.641Z,99271.88
2017-12-30T23:34:23.137Z,99273.33
2017-12-30T23:36:50.594Z,99280.77
2017-12-30T23:39:18.057Z,99289.60
2017-12-30T23:41:45.537Z,99298.73
2017-12-30T23:44:17.551Z,99302.38
2017-12-30T23:46:45.079Z,99303.95
2017-12-30T23:49:12.571Z,99308.09
2017-12-30T23:51:40.143Z,99309.37
2017-12-30T23:54:07.618Z,99315.33
2017-12-30T23:56:35.119Z,99319.17
2017-12-30T23:59:02.625Z,99321.80
